Time;durP1;ratioP1;P1;durP2;ratioP2;P2;SDS_P1;SDS_P2;PMS_P1;PMS_P2;Temp;Humidity;BMP_temperature;BMP_pressure;BME280_temperature;BME280_humidity;BME280_pressure;Samples;Min_cycle;Max_cycle;Signal;HPM_P1;HPM_P2
2021/03/18 00:01:12;;;;;;;16.10;12.47;;;2.10;99.90;;;;;;5009613;28;20477;-78
2021/03/18 00:03:42;;;;;;;14.43;12.10;;;2.20;99.90;;;;;;4995061;28;20544;-78
2021/03/18 00:06:10;;;;;;;13.30;11.90;;;2.20;99.90;;;;;;4994298;28;20534;-77
2021/03/18 00:08:40;;;;;;;13.63;12.23;;;2.00;99.90;;;;;;4994039;28;20543;-77
2021/03/18 00:11:13;;;;;;;15.47;11.57;;;2.10;99.90;;;;;;4994068;28;20521;-78
2021/03/18 00:13:42;;;;;;;17.50;14.70;;;2.20;99.90;;;;;;4994819;28;20480;-78
2021/03/18 00:16:11;;;;;;;14.97;12.30;;;2.40;99.90;;;;;;5005063;28;20559;-77
2021/03/18 00:18:43;;;;;;;14.23;11.30;;;2.10;99.90;;;;;;5003029;28;20532;-78
2021/03/18 00:21:11;;;;;;;13.00;10.87;;;2.00;99.90;;;;;;5001976;28;20886;-77
2021/03/18 00:23:38;;;;;;;11.93;10.30;;;1.90;99.90;;;;;;5008883;28;20474;-77
2021/03/18 00:26:07;;;;;;;12.20;10.27;;;1.80;99.90;;;;;;5009922;28;20476;-77
2021/03/18 00:28:35;;;;;;;12.93;10.67;;;1.90;99.90;;;;;;5013145;28;20513;-77
2021/03/18 00:31:04;;;;;;;13.67;10.50;;;1.80;99.90;;;;;;4999989;28;20482;-77
2021/03/18 00:33:33;;;;;;;13.27;10.03;;;1.80;99.90;;;;;;4993759;28;21032;-77
2021/03/18 00:36:00;;;;;;;24.53;9.20;;;1.80;99.90;;;;;;5008200;28;20505;-77
2021/03/18 00:38:28;;;;;;;15.80;9.07;;;1.60;99.90;;;;;;4992706;28;20485;-77
2021/03/18 00:41:00;;;;;;;14.87;8.87;;;1.50;99.90;;;;;;4992902;28;21052;-77
2021/03/18 00:43:28;;;;;;;22.47;9.47;;;1.50;99.90;;;;;;4992954;28;20536;-77
2021/03/18 00:45:56;;;;;;;12.63;8.97;;;1.50;99.90;;;;;;5015305;28;21047;-77
2021/03/18 00:48:26;;;;;;;15.63;9.97;;;1.50;99.90;;;;;;5003674;28;20469;-77
2021/03/18 00:50:57;;;;;;;17.83;9.43;;;1.60;99.90;;;;;;5015981;28;20480;-77
2021/03/18 00:53:33;;;;;;;17.13;9.20;;;1.60;99.90;;;;;;5010101;28;20468;-77
2021/03/18 00:56:02;;;;;;;17.63;9.23;;;1.60;99.90;;;;;;5027506;28;20483;-77
2021/03/18 00:58:30;;;;;;;12.17;9.33;;;1.50;99.90;;;;;;5027259;28;20488;-78
2021/03/18 01:01:04;;;;;;;21.03;10.97;;;1.50;99.90;;;;;;5026838;28;20503;-77
2021/03/18 01:03:38;;;;;;;22.73;10.17;;;1.50;99.90;;;;;;5027499;28;20490;-77
2021/03/18 01:06:10;;;;;;;19.83;10.60;;;1.50;99.90;;;;;;5027268;28;20472;-77
2021/03/18 01:08:39;;;;;;;15.93;11.23;;;1.60;99.90;;;;;;5023391;28;20491;-77
2021/03/18 01:11:09;;;;;;;17.33;11.30;;;1.50;99.90;;;;;;5011944;28;20508;-77
2021/03/18 01:13:42;;;;;;;21.83;11.90;;;1.60;99.90;;;;;;5012332;28;20496;-77
2021/03/18 01:16:15;;;;;;;29.97;12.63;;;1.60;99.90;;;;;;5009516;28;20551;-77
2021/03/18 01:18:45;;;;;;;13.50;11.50;;;1.60;99.90;;;;;;5002706;28;20571;-77
2021/03/18 01:21:16;;;;;;;25.63;12.80;;;1.60;99.90;;;;;;5003416;28;20484;-77
2021/03/18 01:23:43;;;;;;;27.97;12.70;;;1.60;99.90;;;;;;5012219;28;20484;-77
2021/03/18 01:26:11;;;;;;;34.37;13.53;;;1.60;99.90;;;;;;5012263;28;20488;-77
2021/03/18 01:28:40;;;;;;;29.43;13.40;;;1.70;99.90;;;;;;5003120;28;21070;-77
2021/03/18 01:31:10;;;;;;;16.93;13.17;;;1.60;99.90;;;;;;4992270;28;20493;-77
2021/03/18 01:34:08;;;;;;;20.77;13.67;;;1.60;99.90;;;;;;4992438;28;21140;-77
2021/03/18 01:36:37;;;;;;;15.77;13.27;;;1.70;99.90;;;;;;4992171;28;20488;-78
2021/03/18 01:39:09;;;;;;;17.77;13.63;;;1.70;99.90;;;;;;4991587;28;20488;-77
2021/03/18 01:41:37;;;;;;;29.07;14.20;;;1.70;99.90;;;;;;4992138;28;20481;-77
2021/03/18 01:44:05;;;;;;;23.87;12.80;;;1.60;99.90;;;;;;4999770;28;20472;-77
2021/03/18 01:46:33;;;;;;;28.73;14.27;;;1.70;99.90;;;;;;4998845;28;21000;-77
2021/03/18 01:49:02;;;;;;;26.93;13.83;;;1.60;99.90;;;;;;4999641;28;20562;-77
2021/03/18 01:51:29;;;;;;;24.47;14.10;;;1.60;99.90;;;;;;4991662;28;20988;-77
2021/03/18 01:53:58;;;;;;;25.17;14.40;;;1.70;99.90;;;;;;4992741;28;20837;-77
2021/03/18 01:56:25;;;;;;;16.97;13.60;;;1.80;99.90;;;;;;4991575;28;20563;-77
2021/03/18 01:58:53;;;;;;;22.27;14.40;;;1.90;99.90;;;;;;5006824;28;20493;-77
2021/03/18 02:01:20;;;;;;;19.93;13.80;;;1.90;99.90;;;;;;5019896;28;20492;-77
2021/03/18 02:03:49;;;;;;;17.83;14.33;;;1.90;99.90;;;;;;5010424;28;20500;-77
2021/03/18 02:06:17;;;;;;;17.63;14.80;;;1.80;99.90;;;;;;5026252;28;20480;-77
2021/03/18 02:08:45;;;;;;;17.73;14.00;;;1.90;99.90;;;;;;5011179;28;21011;-77
2021/03/18 02:11:13;;;;;;;21.60;15.47;;;2.10;99.90;;;;;;5011092;28;20488;-77
2021/03/18 02:13:41;;;;;;;21.13;16.00;;;2.00;99.90;;;;;;5010407;28;20485;-78
2021/03/18 02:16:11;;;;;;;26.13;15.17;;;2.00;99.90;;;;;;5000134;28;20568;-77
2021/03/18 02:18:50;;;;;;;20.97;14.53;;;2.00;99.90;;;;;;5003482;28;20900;-77
2021/03/18 02:22:06;;;;;;;19.70;15.47;;;2.10;99.90;;;;;;5009409;28;20507;-77
2021/03/18 02:24:51;;;;;;;21.17;14.33;;;2.00;99.90;;;;;;5010718;28;20534;-77
2021/03/18 02:28:05;;;;;;;18.70;14.67;;;2.00;99.90;;;;;;5011448;28;20483;-77
2021/03/18 02:30:48;;;;;;;32.03;13.90;;;2.00;99.90;;;;;;5001126;28;20544;-78
2021/03/18 02:34:20;;;;;;;19.87;13.97;;;2.00;99.90;;;;;;4992155;28;20486;-77
2021/03/18 02:36:54;;;;;;;15.73;12.67;;;1.90;99.90;;;;;;4971825;28;20945;-78
2021/03/18 02:39:27;;;;;;;30.23;13.97;;;1.90;99.90;;;;;;4993339;28;20838;-77
2021/03/18 02:42:00;;;;;;;18.97;14.40;;;2.00;99.90;;;;;;5005727;28;20481;-77
2021/03/18 02:44:31;;;;;;;25.63;14.40;;;2.10;99.90;;;;;;5000218;28;20545;-78
2021/03/18 02:47:04;;;;;;;20.40;15.40;;;2.00;99.90;;;;;;5011100;28;20479;-77
2021/03/18 02:49:34;;;;;;;17.87;14.33;;;2.10;99.90;;;;;;5010127;28;20472;-77
2021/03/18 02:52:06;;;;;;;17.03;12.57;;;2.10;99.90;;;;;;5010842;28;20470;-77
2021/03/18 02:54:35;;;;;;;21.33;13.87;;;2.20;99.90;;;;;;5011019;28;20911;-77
2021/03/18 02:57:06;;;;;;;21.03;13.20;;;2.10;99.90;;;;;;5010828;28;21007;-78
2021/03/18 02:59:38;;;;;;;18.50;12.40;;;2.00;99.90;;;;;;5009880;28;20884;-77
2021/03/18 03:02:11;;;;;;;16.43;12.67;;;1.90;99.90;;;;;;5025646;28;20567;-77
2021/03/18 03:04:40;;;;;;;21.97;13.13;;;1.90;99.90;;;;;;5007715;28;20879;-78
2021/03/18 03:07:11;;;;;;;15.80;12.77;;;2.00;99.90;;;;;;5011234;28;20480;-77
2021/03/18 03:09:42;;;;;;;19.17;12.20;;;2.10;99.90;;;;;;5004999;28;21055;-77
2021/03/18 03:12:10;;;;;;;17.87;13.10;;;2.20;99.90;;;;;;5008783;28;20566;-77
2021/03/18 03:14:39;;;;;;;17.60;14.10;;;2.30;99.90;;;;;;4996353;28;20505;-77
2021/03/18 03:17:07;;;;;;;16.43;12.33;;;2.20;99.90;;;;;;5011172;28;20481;-77
2021/03/18 03:19:37;;;;;;;29.60;15.73;;;2.30;99.90;;;;;;5009215;28;20989;-77
2021/03/18 03:22:05;;;;;;;18.90;14.20;;;2.40;99.90;;;;;;4997026;28;20482;-78
2021/03/18 03:24:37;;;;;;;18.33;13.87;;;2.20;99.90;;;;;;4995220;28;20478;-78
2021/03/18 03:27:06;;;;;;;17.80;13.20;;;2.30;99.90;;;;;;4995439;28;20551;-77
2021/03/18 03:29:36;;;;;;;20.37;14.37;;;2.30;99.90;;;;;;4994307;28;20520;-78
2021/03/18 03:32:06;;;;;;;20.83;13.20;;;2.30;99.90;;;;;;5013999;28;20491;-77
2021/03/18 03:34:34;;;;;;;17.80;12.00;;;2.30;99.90;;;;;;5014614;28;20514;-78
2021/03/18 03:37:04;;;;;;;21.63;15.87;;;2.60;99.90;;;;;;5003549;28;20504;-77
2021/03/18 03:39:32;;;;;;;20.30;15.10;;;2.60;99.90;;;;;;5004148;28;20497;-77
2021/03/18 03:42:02;;;;;;;20.10;13.23;;;2.40;99.90;;;;;;5009833;28;21096;-77
2021/03/18 03:44:29;;;;;;;19.40;12.60;;;2.40;99.90;;;;;;5006262;28;20555;-78
2021/03/18 03:46:57;;;;;;;18.83;13.57;;;2.70;99.90;;;;;;5030118;28;20500;-77
2021/03/18 03:49:25;;;;;;;16.00;12.60;;;2.50;99.90;;;;;;5013641;28;20495;-78
2021/03/18 03:52:03;;;;;;;18.13;12.77;;;2.40;99.90;;;;;;5014226;28;20884;-77
2021/03/18 03:54:32;;;;;;;20.93;11.93;;;2.30;99.90;;;;;;5014284;28;20472;-78
2021/03/18 03:57:09;;;;;;;21.93;11.73;;;2.30;99.90;;;;;;5013758;28;21281;-77
2021/03/18 03:59:40;;;;;;;18.53;12.10;;;2.30;99.90;;;;;;5016571;28;20817;-77
2021/03/18 04:02:09;;;;;;;16.80;11.90;;;2.30;99.90;;;;;;4994122;28;20515;-77
2021/03/18 04:04:41;;;;;;;23.17;11.90;;;2.40;99.90;;;;;;4994261;28;20481;-78
2021/03/18 04:07:14;;;;;;;16.13;11.63;;;2.30;99.90;;;;;;5010686;28;20515;-78
2021/03/18 04:09:45;;;;;;;17.83;11.67;;;2.30;99.90;;;;;;5004358;28;20477;-77
2021/03/18 04:12:18;;;;;;;17.77;11.40;;;2.30;99.90;;;;;;5010835;28;20507;-77
2021/03/18 04:14:52;;;;;;;16.27;12.03;;;2.40;99.90;;;;;;5005755;28;20542;-77
2021/03/18 04:17:22;;;;;;;17.67;12.97;;;2.40;99.90;;;;;;5013766;28;20471;-77
2021/03/18 04:19:55;;;;;;;20.00;13.03;;;2.50;99.90;;;;;;5017851;28;20476;-78
2021/03/18 04:22:23;;;;;;;19.03;13.20;;;2.70;99.90;;;;;;4993744;28;20537;-78
2021/03/18 04:24:53;;;;;;;20.03;13.80;;;2.60;99.90;;;;;;4996138;28;20516;-78
2021/03/18 04:27:21;;;;;;;23.50;16.20;;;2.70;99.90;;;;;;5005069;28;20519;-78
2021/03/18 04:29:50;;;;;;;20.00;13.90;;;2.60;99.90;;;;;;5028403;28;20515;-77
2021/03/18 04:32:18;;;;;;;21.60;14.37;;;2.60;99.90;;;;;;5014040;28;20539;-78
2021/03/18 04:34:54;;;;;;;22.40;14.83;;;2.60;99.90;;;;;;5010756;28;20840;-77
2021/03/18 04:37:22;;;;;;;21.73;15.37;;;2.60;99.90;;;;;;5005605;28;20479;-77
2021/03/18 04:39:50;;;;;;;22.50;14.77;;;2.60;99.90;;;;;;5010782;28;20850;-78
2021/03/18 04:42:18;;;;;;;21.50;13.73;;;2.60;99.90;;;;;;5005246;28;21030;-78
2021/03/18 04:44:48;;;;;;;21.60;13.30;;;2.80;99.90;;;;;;5013755;28;20485;-78
2021/03/18 04:47:17;;;;;;;23.80;13.47;;;2.80;99.90;;;;;;5028973;28;20567;-78
2021/03/18 04:49:46;;;;;;;24.37;14.17;;;2.80;99.90;;;;;;5012615;28;20542;-78
2021/03/18 04:52:14;;;;;;;25.37;13.77;;;2.70;99.90;;;;;;5013101;28;20497;-78
2021/03/18 04:54:42;;;;;;;23.63;15.23;;;2.80;99.90;;;;;;5013854;28;20701;-78
2021/03/18 04:57:11;;;;;;;25.87;14.77;;;2.80;99.90;;;;;;5014125;28;20873;-78
2021/03/18 04:59:41;;;;;;;24.23;13.30;;;2.80;99.90;;;;;;5002484;28;20563;-78
2021/03/18 05:02:10;;;;;;;27.80;14.00;;;2.80;99.90;;;;;;4996774;28;20551;-78
2021/03/18 05:04:39;;;;;;;33.77;14.27;;;2.90;99.90;;;;;;4994555;28;20871;-78
2021/03/18 05:07:07;;;;;;;36.33;15.37;;;3.20;99.90;;;;;;5007141;28;20557;-78
2021/03/18 05:09:35;;;;;;;39.13;18.87;;;3.30;99.90;;;;;;5022723;28;20544;-78
2021/03/18 05:12:04;;;;;;;34.13;17.47;;;3.10;99.90;;;;;;5009287;28;20488;-78
2021/03/18 05:14:31;;;;;;;33.07;15.87;;;3.00;99.90;;;;;;4992368;28;20470;-78
2021/03/18 05:16:58;;;;;;;32.53;17.23;;;3.00;99.90;;;;;;4993761;28;20908;-78
2021/03/18 05:19:28;;;;;;;34.77;17.17;;;3.10;99.90;;;;;;4993913;28;20519;-78
2021/03/18 05:21:56;;;;;;;32.60;17.47;;;2.90;99.90;;;;;;4993863;28;20481;-77
2021/03/18 05:24:24;;;;;;;30.33;15.83;;;2.90;99.90;;;;;;4993556;28;20481;-77
2021/03/18 05:26:51;;;;;;;34.20;16.13;;;3.00;99.90;;;;;;4993605;28;21001;-78
2021/03/18 05:29:19;;;;;;;35.23;15.87;;;3.00;99.90;;;;;;5003246;28;20475;-78
2021/03/18 05:31:47;;;;;;;35.10;16.03;;;2.90;99.90;;;;;;5003361;28;20831;-78
2021/03/18 05:34:15;;;;;;;30.20;14.00;;;3.00;99.90;;;;;;5006184;28;20479;-78
2021/03/18 05:36:43;;;;;;;41.53;17.60;;;3.00;99.90;;;;;;5002907;28;20479;-78
2021/03/18 05:39:10;;;;;;;41.13;18.03;;;2.90;99.90;;;;;;5002786;28;20868;-78
2021/03/18 05:41:38;;;;;;;40.20;16.77;;;3.00;99.90;;;;;;5018001;28;20485;-78
2021/03/18 05:44:09;;;;;;;36.67;15.73;;;3.00;99.90;;;;;;4998683;28;20570;-77
2021/03/18 05:46:37;;;;;;;40.33;17.23;;;3.10;99.90;;;;;;4992917;28;20481;-78
2021/03/18 05:49:05;;;;;;;36.67;16.50;;;3.10;99.90;;;;;;4992754;28;20500;-78
2021/03/18 05:51:33;;;;;;;47.90;18.53;;;3.00;99.90;;;;;;4992374;28;20497;-78
2021/03/18 05:54:04;;;;;;;42.43;18.17;;;3.00;99.90;;;;;;4993288;28;20791;-78
2021/03/18 05:56:34;;;;;;;47.60;18.87;;;3.10;99.90;;;;;;4993933;28;20476;-78
2021/03/18 05:59:02;;;;;;;45.30;16.87;;;3.10;99.90;;;;;;5011536;28;21056;-78
2021/03/18 06:01:29;;;;;;;48.33;17.10;;;3.20;99.90;;;;;;5007469;28;20535;-78
2021/03/18 06:03:58;;;;;;;45.30;18.53;;;3.10;99.90;;;;;;5001786;28;20495;-78
2021/03/18 06:06:27;;;;;;;45.80;17.87;;;3.10;99.90;;;;;;4998580;28;20469;-78
2021/03/18 06:08:55;;;;;;;49.27;18.50;;;3.10;99.90;;;;;;5004695;28;20486;-77
2021/03/18 06:11:23;;;;;;;43.40;17.97;;;3.10;99.90;;;;;;4993680;28;20512;-78
2021/03/18 06:13:53;;;;;;;42.93;18.37;;;3.20;99.90;;;;;;5004739;28;20477;-77
2021/03/18 06:16:20;;;;;;;46.00;18.30;;;3.20;99.90;;;;;;4995680;28;20529;-78
2021/03/18 06:18:48;;;;;;;44.90;18.83;;;3.10;99.90;;;;;;5005776;28;20495;-77
2021/03/18 06:21:16;;;;;;;43.53;18.70;;;3.10;99.90;;;;;;4992000;28;20850;-77
2021/03/18 06:23:59;;;;;;;40.43;17.63;;;3.20;99.90;;;;;;5005114;28;20472;-78
2021/03/18 06:26:34;;;;;;;45.17;17.50;;;3.10;99.90;;;;;;5003569;28;20476;-77
2021/03/18 06:29:03;;;;;;;42.50;17.87;;;3.20;99.90;;;;;;4995624;28;20488;-77
2021/03/18 06:31:31;;;;;;;48.73;18.20;;;3.10;99.90;;;;;;4993137;28;20472;-77
2021/03/18 06:33:58;;;;;;;48.13;19.17;;;3.10;99.90;;;;;;4992357;28;21172;-77
2021/03/18 06:36:29;;;;;;;41.83;18.80;;;3.10;99.90;;;;;;5003998;28;20483;-77
2021/03/18 06:39:02;;;;;;;48.33;18.20;;;3.10;99.90;;;;;;4993695;28;20485;-78
2021/03/18 06:41:32;;;;;;;47.57;17.40;;;3.40;99.90;;;;;;4991349;28;20528;-78
2021/03/18 06:44:01;;;;;;;51.27;18.77;;;3.50;99.90;;;;;;4990831;28;20484;-77
2021/03/18 06:46:30;;;;;;;48.73;18.93;;;3.40;99.90;;;;;;4994735;28;20486;-78
2021/03/18 06:49:11;;;;;;;51.03;19.60;;;3.20;99.90;;;;;;4983367;28;20485;-78
2021/03/18 06:51:39;;;;;;;50.57;21.13;;;3.40;99.90;;;;;;4996270;28;20488;-78
2021/03/18 06:54:19;;;;;;;47.43;20.47;;;3.30;99.90;;;;;;4999414;28;20496;-78
2021/03/18 06:56:54;;;;;;;48.47;19.93;;;3.30;99.90;;;;;;4992555;28;20482;-78
2021/03/18 06:59:27;;;;;;;44.70;19.17;;;3.50;99.90;;;;;;5002872;28;20481;-77
2021/03/18 07:02:09;;;;;;;40.27;17.43;;;3.40;99.90;;;;;;4999280;28;20475;-78
2021/03/18 07:04:41;;;;;;;43.70;19.47;;;3.30;99.90;;;;;;4991909;28;20474;-79
2021/03/18 07:07:11;;;;;;;41.07;18.23;;;3.40;99.90;;;;;;4991378;28;21076;-79
2021/03/18 07:09:40;;;;;;;39.20;18.27;;;3.40;99.90;;;;;;4989975;28;20536;-79
2021/03/18 07:12:09;;;;;;;41.33;18.67;;;3.40;99.90;;;;;;4992831;28;20884;-78
2021/03/18 07:14:40;;;;;;;39.97;19.87;;;3.30;99.90;;;;;;4995313;28;20578;-78
2021/03/18 07:17:10;;;;;;;44.63;18.87;;;3.30;99.90;;;;;;4989160;28;20490;-78
2021/03/18 07:19:37;;;;;;;41.73;18.40;;;3.40;99.90;;;;;;4989853;28;20483;-79
2021/03/18 07:22:05;;;;;;;43.37;19.10;;;3.50;99.90;;;;;;4994169;28;20503;-78
2021/03/18 07:24:36;;;;;;;42.20;18.63;;;3.40;99.90;;;;;;4988019;28;20572;-78
2021/03/18 07:27:12;;;;;;;37.43;17.97;;;3.40;99.90;;;;;;4991732;28;20491;-78
2021/03/18 07:29:44;;;;;;;37.70;17.63;;;3.40;99.90;;;;;;4986362;28;20570;-79
2021/03/18 07:32:12;;;;;;;38.13;17.27;;;3.40;99.90;;;;;;4993296;28;20488;-79
2021/03/18 07:34:43;;;;;;;36.27;18.07;;;3.40;99.90;;;;;;4993808;28;20496;-79
2021/03/18 07:37:13;;;;;;;33.67;16.77;;;3.50;99.90;;;;;;4991335;28;20545;-79
2021/03/18 07:39:42;;;;;;;36.03;16.93;;;3.50;99.90;;;;;;4988716;28;20491;-79
2021/03/18 07:42:10;;;;;;;35.93;17.30;;;3.50;99.90;;;;;;4988167;28;20491;-79
2021/03/18 07:44:43;;;;;;;38.00;16.97;;;3.50;99.90;;;;;;4981118;28;20495;-84
2021/03/18 07:47:15;;;;;;;36.70;17.40;;;3.60;99.90;;;;;;4993117;28;20574;-78
2021/03/18 07:49:46;;;;;;;33.87;16.03;;;3.60;99.90;;;;;;5000592;28;20492;-80
2021/03/18 07:52:19;;;;;;;29.43;14.63;;;3.80;99.90;;;;;;4985385;28;20489;-78
2021/03/18 07:54:49;;;;;;;32.63;14.87;;;3.90;99.90;;;;;;4992287;28;20491;-78
2021/03/18 07:57:18;;;;;;;33.83;14.93;;;3.90;99.90;;;;;;4990391;28;20508;-78
2021/03/18 07:59:47;;;;;;;30.43;14.97;;;4.00;99.90;;;;;;4989474;28;20538;-78
2021/03/18 08:02:17;;;;;;;30.10;14.97;;;4.00;99.90;;;;;;4988578;28;20916;-78
2021/03/18 08:04:47;;;;;;;28.77;13.93;;;4.00;99.90;;;;;;5000340;28;20483;-79
2021/03/18 08:07:41;;;;;;;31.47;15.03;;;4.10;99.90;;;;;;5001361;28;20487;-78
2021/03/18 08:10:11;;;;;;;27.57;13.30;;;4.10;99.90;;;;;;4995390;28;20856;-78
2021/03/18 08:12:51;;;;;;;28.07;13.17;;;4.20;99.90;;;;;;4993214;28;20484;-77
2021/03/18 08:15:30;;;;;;;28.60;13.80;;;4.30;99.90;;;;;;4993558;28;20485;-78
2021/03/18 08:18:35;;;;;;;27.77;12.13;;;4.40;99.90;;;;;;4993014;28;21378;-78
2021/03/18 08:21:07;;;;;;;25.03;12.00;;;4.60;99.90;;;;;;4992749;28;20500;-79
2021/03/18 08:23:55;;;;;;;26.80;12.57;;;4.60;99.90;;;;;;4993280;28;20503;-78
2021/03/18 08:26:45;;;;;;;24.20;11.27;;;4.60;99.90;;;;;;5007346;28;20239;-78
2021/03/18 08:29:23;;;;;;;24.20;11.47;;;4.60;99.90;;;;;;5002197;28;20865;-78
2021/03/18 08:32:05;;;;;;;25.20;11.27;;;4.60;99.90;;;;;;5006474;28;20474;-78
2021/03/18 08:34:53;;;;;;;22.03;10.77;;;4.60;99.90;;;;;;5010787;28;20476;-78
2021/03/18 08:37:40;;;;;;;19.70;10.90;;;4.70;99.90;;;;;;5010400;28;20563;-78
2021/03/18 08:40:29;;;;;;;21.50;10.73;;;5.00;99.90;;;;;;5004185;28;20484;-78
2021/03/18 08:43:06;;;;;;;26.50;11.50;;;5.10;99.90;;;;;;4991273;28;20511;-78
2021/03/18 08:45:40;;;;;;;21.13;9.97;;;5.10;99.90;;;;;;4991272;28;20510;-78
2021/03/18 08:48:18;;;;;;;20.90;9.50;;;5.10;99.90;;;;;;4991105;28;20480;-78
2021/03/18 08:50:57;;;;;;;24.33;9.77;;;5.10;99.90;;;;;;5000741;28;20487;-78
2021/03/18 08:53:35;;;;;;;20.17;9.17;;;5.20;99.90;;;;;;5008311;28;20553;-79
2021/03/18 08:56:05;;;;;;;22.50;9.77;;;5.20;99.90;;;;;;4994368;28;20520;-78
2021/03/18 08:58:54;;;;;;;18.80;9.47;;;5.30;99.90;;;;;;5002750;28;20485;-78
2021/03/18 09:01:24;;;;;;;15.03;7.80;;;5.40;99.90;;;;;;4999702;28;20496;-78
2021/03/18 09:03:59;;;;;;;14.17;7.13;;;5.50;99.90;;;;;;5010294;28;20471;-78
2021/03/18 09:06:31;;;;;;;17.10;7.30;;;5.60;99.90;;;;;;4991073;28;20561;-78
2021/03/18 09:09:00;;;;;;;15.67;7.67;;;5.50;99.90;;;;;;4990615;28;20476;-78
2021/03/18 09:11:29;;;;;;;13.30;6.90;;;5.50;99.90;;;;;;4990551;28;20491;-78
2021/03/18 09:13:56;;;;;;;15.17;6.93;;;5.50;99.90;;;;;;4990038;28;20543;-78
2021/03/18 09:16:24;;;;;;;13.60;6.53;;;5.70;99.90;;;;;;4993467;28;20571;-78
2021/03/18 09:19:01;;;;;;;15.80;6.67;;;6.00;99.90;;;;;;5009533;28;20282;-79
2021/03/18 09:21:39;;;;;;;13.40;7.10;;;6.30;99.90;;;;;;5020337;28;20558;-78
2021/03/18 09:24:09;;;;;;;14.07;7.00;;;6.70;99.90;;;;;;5008431;28;20248;-79
2021/03/18 09:26:40;;;;;;;16.57;7.90;;;6.90;99.90;;;;;;5003580;28;20262;-79
2021/03/18 09:29:08;;;;;;;12.30;6.17;;;7.00;99.90;;;;;;4999048;28;20230;-79
2021/03/18 09:31:35;;;;;;;15.40;8.23;;;7.20;99.90;;;;;;5008551;28;20241;-79
2021/03/18 09:34:05;;;;;;;13.97;6.50;;;7.30;99.90;;;;;;5010131;28;20233;-79
2021/03/18 09:36:33;;;;;;;11.77;6.43;;;7.60;99.90;;;;;;5009836;28;20336;-79
2021/03/18 09:39:06;;;;;;;11.57;6.53;;;8.20;99.90;;;;;;5008799;28;20295;-78
2021/03/18 09:41:36;;;;;;;11.13;6.20;;;8.30;99.90;;;;;;5009570;28;20247;-79
2021/03/18 09:44:10;;;;;;;10.93;6.10;;;8.10;99.90;;;;;;5009737;28;20237;-78
2021/03/18 09:46:41;;;;;;;10.53;5.87;;;8.00;99.90;;;;;;5006741;28;20244;-78
2021/03/18 09:49:14;;;;;;;9.67;5.27;;;8.00;99.90;;;;;;5007674;28;20314;-79
2021/03/18 09:51:43;;;;;;;12.70;5.77;;;7.90;99.90;;;;;;5006229;28;20253;-78
2021/03/18 09:54:14;;;;;;;11.30;5.60;;;7.80;99.90;;;;;;4998326;28;20245;-78
2021/03/18 09:56:45;;;;;;;9.30;5.23;;;8.00;99.90;;;;;;5006256;28;20244;-78
2021/03/18 09:59:13;;;;;;;8.97;5.13;;;8.00;99.90;;;;;;5000637;28;20300;-79
2021/03/18 10:01:40;;;;;;;8.97;4.67;;;7.90;99.90;;;;;;5006086;28;20284;-79
2021/03/18 10:04:11;;;;;;;9.03;5.37;;;8.10;99.90;;;;;;4989031;28;20855;-78
2021/03/18 10:06:44;;;;;;;8.77;5.00;;;8.20;99.90;;;;;;4999516;28;20589;-79
2021/03/18 10:09:23;;;;;;;8.80;5.00;;;8.20;99.90;;;;;;4988806;28;20237;-79
2021/03/18 10:11:59;;;;;;;6.33;3.83;;;8.30;99.90;;;;;;5006536;28;20241;-79
2021/03/18 10:14:31;;;;;;;7.77;4.50;;;8.20;99.90;;;;;;4997748;28;20237;-79
2021/03/18 10:17:10;;;;;;;6.13;3.80;;;8.20;99.90;;;;;;5008579;28;20316;-79
2021/03/18 10:19:41;;;;;;;8.97;4.00;;;8.30;99.90;;;;;;5021349;28;20316;-79
2021/03/18 10:22:11;;;;;;;8.80;4.00;;;8.50;99.90;;;;;;5003252;28;20237;-79
2021/03/18 10:24:39;;;;;;;7.70;3.37;;;8.80;99.90;;;;;;4998593;28;20261;-79
2021/03/18 10:27:12;;;;;;;5.40;3.43;;;9.20;99.90;;;;;;4997160;28;20240;-79
2021/03/18 10:29:41;;;;;;;6.17;3.40;;;9.10;99.90;;;;;;5007651;28;20812;-79
2021/03/18 10:32:11;;;;;;;5.93;3.37;;;8.60;99.90;;;;;;4988786;28;20257;-79
2021/03/18 10:34:40;;;;;;;8.40;3.70;;;8.40;99.90;;;;;;4988517;28;20837;-79
2021/03/18 10:37:26;;;;;;;7.73;3.93;;;8.30;99.90;;;;;;5005246;28;20295;-79
2021/03/18 10:40:16;;;;;;;7.17;3.23;;;8.20;99.90;;;;;;5007693;28;20236;-79
2021/03/18 10:42:49;;;;;;;5.13;3.43;;;8.00;99.90;;;;;;4988288;28;20868;-78
2021/03/18 10:45:33;;;;;;;6.77;3.23;;;8.00;99.90;;;;;;4989567;28;20987;-78
2021/03/18 10:48:06;;;;;;;5.40;3.50;;;7.90;99.90;;;;;;5006139;28;20791;-78
2021/03/18 10:50:37;;;;;;;5.97;2.83;;;7.80;99.90;;;;;;5001241;28;20241;-79
2021/03/18 10:53:08;;;;;;;6.63;2.90;;;7.80;99.90;;;;;;5000071;28;20246;-78
2021/03/18 10:55:39;;;;;;;5.27;3.00;;;7.70;99.90;;;;;;5007045;28;20229;-78
2021/03/18 10:58:10;;;;;;;4.73;2.77;;;7.60;99.90;;;;;;4999164;28;20240;-78
2021/03/18 11:00:40;;;;;;;3.63;2.23;;;7.40;99.90;;;;;;4999352;28;20324;-79
2021/03/18 11:03:12;;;;;;;4.77;2.87;;;7.30;99.90;;;;;;5008394;28;20230;-78
2021/03/18 11:05:44;;;;;;;6.33;2.83;;;7.30;99.90;;;;;;5009931;28;20320;-78
2021/03/18 11:08:16;;;;;;;3.07;2.20;;;7.30;99.90;;;;;;5009493;28;20243;-78
2021/03/18 11:10:47;;;;;;;3.97;1.93;;;7.20;99.90;;;;;;5009495;28;20237;-78
2021/03/18 11:13:21;;;;;;;6.10;4.57;;;7.10;99.90;;;;;;4993168;28;20288;-78
2021/03/18 11:15:57;;;;;;;6.07;4.50;;;7.10;99.90;;;;;;4992383;28;20233;-79
2021/03/18 11:18:33;;;;;;;3.50;2.37;;;7.20;99.90;;;;;;5004516;28;20229;-78
2021/03/18 11:21:02;;;;;;;3.67;2.20;;;7.40;99.90;;;;;;5000062;28;20237;-77
2021/03/18 11:23:37;;;;;;;5.67;2.47;;;7.50;99.90;;;;;;5002136;28;20237;-77
2021/03/18 11:26:06;;;;;;;5.80;2.00;;;7.40;99.90;;;;;;5012124;28;20224;-77
2021/03/18 11:28:34;;;;;;;3.97;2.10;;;7.40;99.90;;;;;;4995290;28;20233;-77
2021/03/18 11:31:14;;;;;;;3.40;1.90;;;7.30;99.90;;;;;;4991562;28;20238;-77
2021/03/18 11:33:42;;;;;;;4.83;2.13;;;7.30;99.90;;;;;;4990798;28;20248;-78
2021/03/18 11:36:11;;;;;;;2.83;1.90;;;7.50;99.90;;;;;;5024208;28;20791;-77
2021/03/18 11:38:40;;;;;;;3.60;2.40;;;7.60;99.90;;;;;;4997473;28;20245;-78
2021/03/18 11:41:08;;;;;;;2.67;1.63;;;7.70;99.90;;;;;;4998202;28;20329;-77
2021/03/18 11:43:36;;;;;;;2.97;1.97;;;7.90;99.90;;;;;;5011835;28;20291;-77
2021/03/18 11:46:04;;;;;;;6.07;1.97;;;8.00;99.90;;;;;;5027351;28;20229;-79
2021/03/18 11:48:33;;;;;;;3.00;1.20;;;8.10;99.90;;;;;;5013689;28;20226;-78
2021/03/18 11:51:01;;;;;;;3.03;1.30;;;7.80;99.90;;;;;;5001055;28;20225;-77
2021/03/18 11:53:28;;;;;;;1.80;1.10;;;7.70;99.90;;;;;;5017344;28;20230;-79
2021/03/18 11:55:56;;;;;;;2.47;1.37;;;7.80;99.90;;;;;;5001506;28;20248;-79
2021/03/18 11:58:25;;;;;;;4.20;1.53;;;7.90;99.90;;;;;;5005645;28;20292;-78
2021/03/18 12:00:52;;;;;;;2.23;1.10;;;8.20;99.90;;;;;;4996529;28;20459;-77
2021/03/18 12:03:20;;;;;;;4.13;1.50;;;8.40;99.90;;;;;;5002289;28;20371;-77
2021/03/18 12:05:48;;;;;;;2.87;1.20;;;8.50;99.90;;;;;;5017066;28;20238;-78
2021/03/18 12:08:16;;;;;;;2.57;1.10;;;8.50;99.90;;;;;;5003727;28;20241;-77
2021/03/18 12:11:03;;;;;;;4.80;1.27;;;8.50;99.90;;;;;;5002792;28;20616;-78
2021/03/18 12:13:38;;;;;;;3.20;1.13;;;8.40;99.90;;;;;;5001512;28;20225;-78
2021/03/18 12:16:07;;;;;;;4.37;1.50;;;8.20;99.90;;;;;;4999729;28;20300;-78
2021/03/18 12:18:34;;;;;;;3.53;1.20;;;8.30;99.90;;;;;;4997433;28;20252;-77
2021/03/18 12:21:04;;;;;;;1.80;1.20;;;8.30;99.90;;;;;;4998401;28;20226;-77
2021/03/18 12:23:32;;;;;;;2.37;1.13;;;8.30;99.90;;;;;;5006019;28;20245;-77
2021/03/18 12:25:59;;;;;;;2.37;1.30;;;8.10;99.90;;;;;;5006613;28;20237;-78
2021/03/18 12:28:28;;;;;;;3.90;1.23;;;7.80;99.90;;;;;;5002978;28;20241;-77
2021/03/18 12:30:55;;;;;;;3.03;1.37;;;7.70;99.90;;;;;;4992382;28;20771;-77
2021/03/18 12:33:23;;;;;;;2.10;0.90;;;7.80;99.90;;;;;;4998377;28;20245;-77
2021/03/18 12:35:52;;;;;;;2.57;1.00;;;7.60;99.90;;;;;;4997432;28;20756;-77
2021/03/18 12:38:21;;;;;;;3.17;1.10;;;7.30;99.90;;;;;;4999731;28;20241;-77
2021/03/18 12:40:49;;;;;;;3.20;1.00;;;7.00;99.90;;;;;;4997114;28;20941;-78
2021/03/18 12:43:17;;;;;;;1.50;1.00;;;6.80;99.90;;;;;;4997605;28;20241;-77
2021/03/18 12:45:46;;;;;;;3.60;1.30;;;6.70;99.90;;;;;;4991337;28;20287;-77
2021/03/18 12:48:14;;;;;;;2.63;1.27;;;6.70;99.90;;;;;;4993250;28;20272;-78
2021/03/18 12:50:43;;;;;;;4.13;1.00;;;6.70;99.90;;;;;;5012588;28;20230;-77
2021/03/18 12:53:10;;;;;;;1.50;0.97;;;6.70;99.90;;;;;;4997234;28;20234;-77
2021/03/18 12:55:39;;;;;;;2.40;1.20;;;6.70;99.90;;;;;;5003194;28;20240;-77
2021/03/18 12:58:06;;;;;;;2.07;1.40;;;6.80;99.90;;;;;;5009398;28;20225;-77
2021/03/18 13:00:36;;;;;;;2.47;1.23;;;6.90;99.90;;;;;;5009169;28;20237;-77
2021/03/18 13:03:06;;;;;;;2.17;0.93;;;6.80;99.90;;;;;;5002083;28;20234;-77
2021/03/18 13:05:34;;;;;;;3.07;1.13;;;6.80;99.90;;;;;;4997692;28;20234;-78